Time;durP1;ratioP1;P1;durP2;ratioP2;P2;SDS_P1;SDS_P2;PMS_P1;PMS_P2;Temp;Humidity;BMP_temperature;BMP_pressure;BME280_temperature;BME280_humidity;BME280_pressure;Samples;Min_cycle;Max_cycle;Signal;HPM_P1;HPM_P2
2021/12/23 00:01:35;;;;;;;13.15;6.55;;;;;;;-8.80;72.36;100873.95;1726821;83;21696;-82
2021/12/23 00:04:40;;;;;;;12.45;7.87;;;;;;;-8.83;72.39;100870.94;1726657;83;21309;-82
2021/12/23 00:07:45;;;;;;;10.25;6.50;;;;;;;-8.83;72.38;100870.94;1711990;83;21169;-81
2021/12/23 00:10:51;;;;;;;12.47;6.42;;;;;;;-8.82;72.43;100866.05;1733414;82;21177;-80
2021/12/23 00:14:05;;;;;;;15.15;8.25;;;;;;;-8.78;72.48;100857.55;1734864;83;21336;-81
2021/12/23 00:17:27;;;;;;;11.78;6.92;;;;;;;-8.71;72.51;100863.09;1734463;82;21751;-82
2021/12/23 00:23:42;;;;;;;11.45;6.00;;;;;;;-8.72;72.32;100870.64;1734752;83;21311;-81
2021/12/23 00:26:49;;;;;;;11.03;5.83;;;;;;;-8.77;72.39;100875.20;1734620;83;21185;-82
2021/12/23 00:29:55;;;;;;;13.32;6.47;;;;;;;-8.82;72.75;100873.12;1734779;83;21292;-81
2021/12/23 00:33:02;;;;;;;13.32;6.33;;;;;;;-8.85;73.00;100867.44;1734971;83;21308;-81
2021/12/23 00:36:12;;;;;;;11.40;5.28;;;;;;;-8.87;73.21;100871.06;1734862;83;21328;-82
2021/12/23 00:39:16;;;;;;;12.63;6.72;;;;;;;-8.85;73.41;100871.88;1734860;82;21206;-81
2021/12/23 00:42:22;;;;;;;12.75;6.40;;;;;;;-8.84;73.50;100865.23;1734851;83;21205;-81
2021/12/23 00:45:28;;;;;;;10.55;5.78;;;;;;;-8.81;73.59;100853.19;1734888;83;21246;-81
2021/12/23 00:48:35;;;;;;;8.95;6.03;;;;;;;-8.81;73.35;100854.98;1734869;83;21360;-81
2021/12/23 00:51:40;;;;;;;10.85;6.53;;;;;;;-8.87;73.57;100853.83;1762066;81;21331;-81
2021/12/23 00:54:46;;;;;;;15.55;6.75;;;;;;;-8.85;73.79;100854.64;1727953;81;21710;-80
2021/12/23 00:57:51;;;;;;;12.30;6.15;;;;;;;-8.85;73.69;100848.88;1773966;81;21196;-81
2021/12/23 01:00:59;;;;;;;12.15;6.40;;;;;;;-8.85;73.71;100845.36;1774040;81;21818;-82
2021/12/23 01:04:05;;;;;;;11.20;5.60;;;;;;;-8.88;73.67;100846.79;1753453;81;21306;-82
2021/12/23 01:07:11;;;;;;;14.53;7.12;;;;;;;-8.91;73.91;100845.53;1773978;81;21224;-82
2021/12/23 01:10:17;;;;;;;11.08;6.00;;;;;;;-8.93;74.19;100852.21;1771839;81;21188;-80
2021/12/23 01:13:25;;;;;;;9.83;5.15;;;;;;;-8.88;74.33;100861.38;1744972;82;21206;-81
2021/12/23 01:19:50;;;;;;;12.53;5.92;;;;;;;-8.83;74.56;100852.84;1726955;82;21174;-81
2021/12/23 01:22:39;;;;;;;10.28;5.25;;;;;;;-8.81;74.57;100855.84;1745091;82;21715;-80
2021/12/23 01:25:45;;;;;;;10.82;6.53;;;;;;;-8.81;74.63;100861.61;1774639;81;21320;-80
2021/12/23 01:28:50;;;;;;;10.45;5.95;;;;;;;-8.84;74.70;100860.38;1718099;82;21302;-82
2021/12/23 01:31:55;;;;;;;8.48;5.47;;;;;;;-8.84;74.89;100857.73;1745098;82;21316;-80
2021/12/23 01:35:00;;;;;;;10.63;5.33;;;;;;;-8.84;74.91;100859.92;1761027;81;21745;-80
2021/12/23 01:38:06;;;;;;;9.50;5.78;;;;;;;-8.86;74.96;100861.72;1733886;81;21303;-80
2021/12/23 01:41:11;;;;;;;12.78;5.15;;;;;;;-8.87;75.05;100863.10;1743498;82;21293;-82
2021/12/23 01:44:15;;;;;;;10.80;6.22;;;;;;;-8.92;75.25;100865.01;1745184;82;21280;-81
2021/12/23 01:47:21;;;;;;;8.05;4.92;;;;;;;-8.94;75.28;100862.38;1761026;81;21303;-81
2021/12/23 01:50:29;;;;;;;8.63;4.85;;;;;;;-8.91;75.38;100860.98;1774591;81;21861;-81
2021/12/23 01:53:34;;;;;;;9.15;4.75;;;;;;;-8.90;75.35;100858.73;1710903;84;21214;-81
2021/12/23 01:56:39;;;;;;;10.48;6.30;;;;;;;-8.90;75.41;100861.84;1714429;83;21303;-81
2021/12/23 01:59:46;;;;;;;8.63;5.70;;;;;;;-8.87;75.51;100857.80;1717165;82;21180;-81
2021/12/23 02:02:51;;;;;;;13.35;5.83;;;;;;;-8.82;75.48;100857.22;1713512;83;21935;-81
2021/12/23 02:05:56;;;;;;;15.18;6.05;;;;;;;-8.77;75.54;100863.27;1739703;82;21237;-80
2021/12/23 02:09:04;;;;;;;11.15;5.85;;;;;;;-8.70;75.31;100863.53;1740467;82;21696;-81
2021/12/23 02:12:09;;;;;;;13.05;5.87;;;;;;;-8.68;75.07;100860.37;1714341;83;21786;-81
2021/12/23 02:15:14;;;;;;;9.25;5.85;;;;;;;-8.74;75.00;100852.59;1740553;82;21319;-80
2021/12/23 02:18:19;;;;;;;8.78;5.65;;;;;;;-8.75;75.01;100853.48;1690790;83;21318;-81
2021/12/23 02:21:24;;;;;;;8.00;5.00;;;;;;;-8.77;75.01;100857.97;1740434;82;21237;-81
2021/12/23 02:24:29;;;;;;;15.15;6.15;;;;;;;-8.79;75.03;100856.69;1695389;82;21825;-79
2021/12/23 02:27:34;;;;;;;10.70;5.78;;;;;;;-8.86;74.88;100857.75;1714367;83;21331;-81
2021/12/23 02:30:40;;;;;;;8.10;4.92;;;;;;;-8.92;75.01;100855.73;1740511;82;21307;-81
2021/12/23 02:33:46;;;;;;;11.63;5.85;;;;;;;-8.93;75.01;100857.97;1740484;82;21756;-80
2021/12/23 02:36:58;;;;;;;9.95;5.08;;;;;;;-8.97;75.01;100856.30;1714246;83;21193;-80
2021/12/23 02:40:03;;;;;;;11.25;5.30;;;;;;;-9.02;75.10;100854.64;1740487;82;21280;-81
2021/12/23 02:43:17;;;;;;;8.28;5.40;;;;;;;-9.04;75.11;100860.42;1714268;83;21311;-81
2021/12/23 02:46:24;;;;;;;9.75;6.00;;;;;;;-9.08;75.22;100865.41;1740534;82;21205;-80
2021/12/23 02:49:29;;;;;;;9.88;5.75;;;;;;;-9.06;75.33;100860.06;1714382;83;21319;-79
2021/12/23 02:52:36;;;;;;;15.48;5.67;;;;;;;-9.08;75.46;100864.52;1744961;80;21339;-79
2021/12/23 02:55:41;;;;;;;11.35;5.00;;;;;;;-9.11;75.54;100866.80;1803624;79;21798;-80
2021/12/23 02:58:47;;;;;;;10.55;5.40;;;;;;;-9.10;75.70;100865.89;1803441;79;21315;-81
2021/12/23 03:01:51;;;;;;;9.28;5.60;;;;;;;-9.13;75.80;100869.06;1803479;79;21185;-80
2021/12/23 03:04:58;;;;;;;8.48;5.20;;;;;;;-9.17;75.82;100870.94;1763883;81;21154;-81
2021/12/23 09:59:26;;;;;;;25.97;11.25;;;;;;;-6.70;57.35;101066.11;1781535;79;21377;-81
2021/12/23 10:02:29;;;;;;;29.02;11.83;;;;;;;-6.59;57.22;101063.09;1777725;79;21263;-82
2021/12/23 10:05:38;;;;;;;30.10;11.45;;;;;;;-6.57;57.01;101051.09;1781670;79;21809;-82
2021/12/23 10:08:45;;;;;;;22.40;10.10;;;;;;;-6.51;56.97;101053.09;1778756;79;21193;-85
2021/12/23 10:32:21;;;;;;;25.68;12.07;;;;;;;-6.84;58.59;101048.85;1752661;80;21189;-82
2021/12/23 10:38:45;;;;;;;21.48;10.40;;;;;;;-6.98;59.24;101044.83;1717683;82;21331;-84
2021/12/23 10:41:56;;;;;;;29.55;13.88;;;;;;;-7.01;59.70;101046.27;1771911;80;21158;-84
2021/12/23 10:45:11;;;;;;;29.05;11.03;;;;;;;-7.00;59.64;101045.34;1767258;79;21295;-81
2021/12/23 10:48:18;;;;;;;29.63;13.88;;;;;;;-6.93;59.84;101038.50;1772641;80;21333;-84
2021/12/23 10:51:26;;;;;;;29.83;12.93;;;;;;;-6.84;59.80;101038.20;1770212;80;21280;-83
2021/12/23 10:58:04;;;;;;;24.98;11.95;;;;;;;-6.55;59.80;101035.47;1692567;83;21395;-81
2021/12/23 11:01:10;;;;;;;23.27;11.05;;;;;;;-6.32;59.40;101031.17;1716877;80;21312;-81
2021/12/23 11:37:47;;;;;;;6.62;4.05;;;;;;;-7.21;56.79;101026.05;1742364;80;21391;-81
2021/12/23 11:40:55;;;;;;;12.10;6.25;;;;;;;-7.23;57.24;101027.44;1739164;81;22189;-81
2021/12/23 11:44:07;;;;;;;7.90;4.85;;;;;;;-7.22;57.01;101019.00;1742430;81;21284;-81
2021/12/23 11:47:16;;;;;;;8.55;4.05;;;;;;;-7.16;56.54;101028.56;1732872;81;21295;-83
2021/12/23 11:50:54;;;;;;;9.90;4.87;;;;;;;-7.17;57.00;101029.03;1744083;80;21309;-83
2021/12/23 11:53:58;;;;;;;8.95;5.05;;;;;;;-7.14;56.92;101029.41;1742273;81;21307;-84
2021/12/23 11:57:28;;;;;;;7.62;4.62;;;;;;;-7.15;56.75;101025.88;1685740;83;21229;-82
2021/12/23 12:00:44;;;;;;;7.37;4.50;;;;;;;-7.10;56.83;101031.06;1698681;82;21372;-83
2021/12/23 12:04:10;;;;;;;5.78;3.75;;;;;;;-7.12;56.73;101033.74;1732396;81;21214;-83
2021/12/23 12:07:30;;;;;;;10.23;4.55;;;;;;;-7.30;56.62;101035.62;1712492;82;21304;-83
2021/12/23 12:10:40;;;;;;;10.32;5.28;;;;;;;-7.38;57.16;101032.34;1743397;81;21276;-83
2021/12/23 12:13:49;;;;;;;8.63;4.83;;;;;;;-7.46;57.60;101029.91;1720313;82;21299;-84
2021/12/23 12:16:56;;;;;;;7.05;4.22;;;;;;;-7.57;57.41;101032.88;1744522;81;21305;-85
2021/12/23 12:20:38;;;;;;;10.30;5.10;;;;;;;-7.72;58.35;101035.48;1775237;80;21693;-82
2021/12/23 12:23:45;;;;;;;6.58;4.33;;;;;;;-7.84;58.25;101038.97;1782628;79;21822;-86
2021/12/23 12:27:08;;;;;;;9.05;4.75;;;;;;;-7.94;59.08;101038.81;1760230;79;21268;-82
2021/12/23 12:30:21;;;;;;;8.38;4.95;;;;;;;-7.98;59.35;101044.66;1767911;79;21364;-83
2021/12/23 12:33:36;;;;;;;8.70;4.70;;;;;;;-8.10;57.85;101044.51;1760120;79;21153;-85
2021/12/23 12:36:56;;;;;;;8.38;4.60;;;;;;;-8.26;57.46;101048.03;1771412;79;21244;-85
2021/12/23 12:40:05;;;;;;;9.70;4.87;;;;;;;-8.45;58.05;101057.41;1754235;79;21540;-84
2021/12/23 12:43:48;;;;;;;12.55;5.58;;;;;;;-8.57;58.47;101053.26;1776241;79;21924;-84
2021/12/23 12:47:10;;;;;;;10.87;4.97;;;;;;;-8.61;58.71;101052.95;1755627;79;21295;-83
2021/12/23 12:50:24;;;;;;;8.88;4.42;;;;;;;-8.62;59.17;101060.92;1768433;79;21284;-84
2021/12/23 12:53:33;;;;;;;6.95;4.65;;;;;;;-8.57;59.33;101066.98;1777271;79;21315;-83
2021/12/23 12:56:41;;;;;;;5.78;3.87;;;;;;;-8.55;59.29;101066.05;1774433;80;21509;-84
2021/12/23 12:59:52;;;;;;;8.33;4.58;;;;;;;-8.57;59.43;101061.67;1766949;79;21166;-80
2021/12/23 13:03:04;;;;;;;6.90;4.10;;;;;;;-8.61;59.77;101059.58;1755225;79;21608;-83
2021/12/23 13:06:12;;;;;;;8.45;4.70;;;;;;;-8.66;59.97;101065.88;1765115;79;21306;-81
2021/12/23 13:09:26;;;;;;;8.93;5.12;;;;;;;-8.82;60.51;101068.03;1730767;79;21809;-84
2021/12/23 13:13:04;;;;;;;6.83;4.10;;;;;;;-8.97;60.90;101066.61;1776682;79;21567;-84
2021/12/23 13:16:25;;;;;;;12.65;4.92;;;;;;;-8.94;61.22;101069.16;1725746;79;21755;-81
2021/12/23 13:19:42;;;;;;;10.08;4.70;;;;;;;-8.90;61.20;101069.52;1768545;79;21319;-83
2021/12/23 13:22:56;;;;;;;7.22;4.10;;;;;;;-8.85;60.94;101070.73;1773927;79;21279;-83
2021/12/23 13:26:04;;;;;;;7.87;5.10;;;;;;;-8.84;60.76;101067.20;1781517;79;21295;-82
2021/12/23 13:29:10;;;;;;;7.03;4.22;;;;;;;-8.90;59.92;101072.17;1767848;79;21288;-83
2021/12/23 13:32:17;;;;;;;28.85;5.53;;;;;;;-9.03;60.13;101068.95;1774648;79;21341;-81
2021/12/23 13:35:24;;;;;;;9.33;4.08;;;;;;;-9.14;60.31;101072.27;1781824;79;21873;-80
2021/12/23 13:38:41;;;;;;;9.48;4.20;;;;;;;-9.20;60.49;101074.20;1780912;79;21272;-80
2021/12/23 13:41:53;;;;;;;5.62;3.72;;;;;;;-9.27;60.62;101070.36;1764184;79;21762;-81
2021/12/23 13:44:59;;;;;;;8.20;4.03;;;;;;;-9.32;60.88;101073.98;1772908;79;21810;-82
2021/12/23 13:48:11;;;;;;;7.47;4.35;;;;;;;-9.41;61.00;101071.11;1785874;79;21315;-80
2021/12/23 13:51:29;;;;;;;9.03;4.85;;;;;;;-9.44;61.28;101075.13;1779154;79;21605;-83
2021/12/23 13:54:50;;;;;;;7.25;3.27;;;;;;;-9.43;61.43;101072.02;1783628;79;21327;-83
2021/12/23 13:58:04;;;;;;;12.45;4.37;;;;;;;-9.37;61.53;101075.86;1778923;79;21141;-83
2021/12/23 14:01:12;;;;;;;8.05;4.40;;;;;;;-9.44;61.49;101072.94;1783338;79;21788;-83
2021/12/23 14:04:38;;;;;;;8.05;4.53;;;;;;;-9.52;61.52;101081.90;1757148;81;21790;-83
2021/12/23 14:07:51;;;;;;;9.00;4.30;;;;;;;-9.58;61.79;101086.45;1753905;81;21803;-83
2021/12/23 14:10:58;;;;;;;8.20;3.90;;;;;;;-9.62;62.10;101088.29;1740654;81;21177;-81
2021/12/23 14:14:05;;;;;;;7.55;4.05;;;;;;;-9.64;62.63;101086.14;1757184;81;21335;-80
2021/12/23 14:17:34;;;;;;;9.58;5.10;;;;;;;-9.72;62.77;101089.38;1753204;80;21287;-80
2021/12/23 14:25:01;;;;;;;10.30;5.75;;;;;;;-9.89;63.18;101092.78;1743074;81;21655;-83
2021/12/23 14:28:07;;;;;;;9.08;4.87;;;;;;;-9.94;63.16;101092.00;1734772;81;21204;-81
2021/12/23 14:31:21;;;;;;;15.32;8.40;;;;;;;-9.97;63.22;101094.27;1704133;81;21303;-82
2021/12/23 14:34:30;;;;;;;11.05;6.08;;;;;;;-10.00;63.03;101100.06;1751397;81;21719;-81
2021/12/23 14:37:38;;;;;;;11.93;5.60;;;;;;;-9.97;63.09;101103.95;1756036;81;21204;-81
2021/12/23 14:40:43;;;;;;;9.28;5.08;;;;;;;-9.94;63.09;101097.29;1745741;81;21288;-81
2021/12/23 14:44:10;;;;;;;13.28;7.30;;;;;;;-9.97;62.84;101102.20;1733480;82;21276;-82
2021/12/23 14:47:28;;;;;;;11.95;7.00;;;;;;;-10.09;63.02;101099.31;1746479;81;21352;-81
2021/12/23 14:50:37;;;;;;;8.90;6.30;;;;;;;-10.18;63.08;101106.09;1761725;80;21802;-82
2021/12/23 14:53:33;;;;;;;11.57;7.15;;;;;;;-10.20;63.51;101097.32;1755769;81;21288;-81
2021/12/23 14:56:38;;;;;;;9.98;6.22;;;;;;;-10.21;63.36;101102.16;1719449;83;21288;-82
2021/12/23 14:59:53;;;;;;;11.18;6.10;;;;;;;-10.31;63.29;101094.87;1720011;83;21281;-80
2021/12/23 15:02:58;;;;;;;13.90;6.97;;;;;;;-10.42;63.15;101093.31;1709080;81;21225;-81
2021/12/23 15:06:08;;;;;;;9.75;5.92;;;;;;;-10.57;63.55;101095.31;1735829;81;21838;-81
2021/12/23 15:09:30;;;;;;;11.25;6.80;;;;;;;-10.58;64.22;101092.25;1749646;82;21273;-80
2021/12/23 15:12:39;;;;;;;9.98;6.47;;;;;;;-10.66;64.31;101096.77;1684535;84;21810;-82
2021/12/23 15:15:43;;;;;;;11.12;6.50;;;;;;;-10.78;64.37;101094.30;1734429;82;21265;-80
2021/12/23 15:21:58;;;;;;;11.30;6.65;;;;;;;-10.98;65.25;101099.02;1750095;81;21328;-80
2021/12/23 15:25:14;;;;;;;12.75;7.35;;;;;;;-11.07;65.33;101101.34;1757710;81;21316;-82
2021/12/23 15:28:20;;;;;;;13.72;6.75;;;;;;;-11.16;64.74;101096.17;1679987;85;21325;-82
2021/12/23 15:31:25;;;;;;;13.68;6.58;;;;;;;-11.33;64.52;101091.13;1749899;82;21286;-80
2021/12/23 15:34:32;;;;;;;18.70;9.60;;;;;;;-11.45;64.90;101099.20;1750280;81;21807;-82
2021/12/23 15:37:38;;;;;;;13.68;7.53;;;;;;;-11.54;65.17;101100.63;1749519;82;21206;-81
2021/12/23 15:40:45;;;;;;;14.60;8.18;;;;;;;-11.48;65.63;101101.87;1750608;81;21316;-80
2021/12/23 15:43:51;;;;;;;38.28;20.25;;;;;;;-11.45;65.26;101096.56;1674854;85;21178;-80
2021/12/23 15:46:56;;;;;;;38.20;17.30;;;;;;;-11.49;65.22;101106.72;1749797;82;21305;-80
2021/12/23 15:50:02;;;;;;;36.40;13.68;;;;;;;-11.59;65.21;101105.52;1749799;82;21806;-82
2021/12/23 15:53:09;;;;;;;26.37;13.90;;;;;;;-11.69;65.32;101102.55;1749740;82;21348;-80
2021/12/23 15:56:14;;;;;;;27.48;14.65;;;;;;;-11.73;65.26;101099.97;1749953;82;21139;-82
2021/12/23 15:59:20;;;;;;;29.50;13.90;;;;;;;-11.78;65.18;101097.83;1749934;82;21735;-81
2021/12/23 16:02:30;;;;;;;26.07;13.98;;;;;;;-11.84;65.15;101099.26;1749851;82;21854;-80
2021/12/23 16:08:41;;;;;;;30.60;17.23;;;;;;;-11.94;65.76;101102.44;1753282;82;21202;-81
2021/12/23 16:11:46;;;;;;;33.85;17.12;;;;;;;-11.98;65.69;101096.31;1754961;82;21316;-82
2021/12/23 16:14:53;;;;;;;49.23;24.57;;;;;;;-12.04;65.70;101094.16;1754712;82;21898;-80
2021/12/23 16:17:59;;;;;;;67.20;35.48;;;;;;;-12.06;66.03;101093.31;1754747;82;21779;-81
2021/12/23 16:21:05;;;;;;;46.20;25.30;;;;;;;-12.21;66.13;101091.70;1755001;81;21296;-80
2021/12/23 16:24:11;;;;;;;38.90;20.27;;;;;;;-12.28;66.06;101096.59;1754717;82;21142;-82
2021/12/23 16:27:17;;;;;;;37.25;20.05;;;;;;;-12.44;65.49;101097.18;1754805;82;21292;-82
2021/12/23 16:30:29;;;;;;;35.25;18.85;;;;;;;-12.76;65.16;101104.88;1755026;82;21818;-80
2021/12/23 16:33:34;;;;;;;39.98;18.23;;;;;;;-12.87;65.66;101102.78;1754856;82;21308;-81
2021/12/23 16:36:43;;;;;;;35.73;18.37;;;;;;;-12.89;65.87;101103.20;1754929;82;21288;-82
2021/12/23 16:39:50;;;;;;;34.05;19.62;;;;;;;-12.91;66.11;101108.95;1754980;82;21288;-82
2021/12/23 16:42:55;;;;;;;34.05;19.67;;;;;;;-12.95;66.49;101113.80;1754955;82;21312;-80
2021/12/23 16:46:00;;;;;;;35.43;19.05;;;;;;;-12.99;66.73;101110.74;1754913;82;21158;-81
2021/12/23 16:49:06;;;;;;;33.30;14.68;;;;;;;-13.02;66.39;101120.88;1754809;82;21273;-82
2021/12/23 16:52:12;;;;;;;30.77;14.53;;;;;;;-13.06;66.13;101128.80;1753965;82;21332;-82
2021/12/23 16:58:42;;;;;;;26.82;13.95;;;;;;;-13.21;65.58;101127.12;1753388;82;21325;-80
2021/12/23 17:01:48;;;;;;;32.95;15.10;;;;;;;-13.34;65.98;101135.98;1754318;82;21359;-82
2021/12/23 17:04:55;;;;;;;35.08;15.65;;;;;;;-13.34;66.48;101132.04;1753585;81;21288;-79
2021/12/23 17:08:01;;;;;;;26.35;13.78;;;;;;;-13.38;66.62;101136.88;1753251;81;21202;-80
2021/12/23 17:11:07;;;;;;;24.23;13.18;;;;;;;-13.44;66.98;101136.02;1753468;82;21221;-81
2021/12/23 17:14:12;;;;;;;26.90;12.82;;;;;;;-13.44;67.25;101133.39;1753472;82;21317;-81
2021/12/23 17:17:20;;;;;;;24.87;13.43;;;;;;;-13.40;67.97;101138.21;1753442;81;21233;-80
2021/12/23 17:23:39;;;;;;;31.37;15.35;;;;;;;-13.34;67.96;101122.38;1753231;82;21296;-80
2021/12/23 17:26:45;;;;;;;29.50;14.73;;;;;;;-13.29;68.33;101123.23;1753635;82;21311;-79
2021/12/23 17:29:51;;;;;;;24.57;13.35;;;;;;;-13.24;68.69;101109.60;1754782;82;21289;-79
2021/12/23 17:33:00;;;;;;;28.38;15.75;;;;;;;-13.20;68.81;101108.67;1753456;82;21830;-79
2021/12/23 17:36:06;;;;;;;29.87;15.25;;;;;;;-13.22;68.62;101109.58;1754194;82;21881;-80
2021/12/23 17:39:12;;;;;;;31.07;14.78;;;;;;;-13.25;68.52;101101.28;1754760;82;21799;-80
2021/12/23 17:42:17;;;;;;;32.23;14.38;;;;;;;-13.21;68.69;101096.40;1754895;82;21308;-80
2021/12/23 17:45:22;;;;;;;40.15;19.87;;;;;;;-13.14;68.88;101107.31;1754900;82;21273;-80
2021/12/23 17:48:30;;;;;;;40.00;19.52;;;;;;;-13.11;68.59;101105.56;1754905;82;21308;-81
2021/12/23 17:51:36;;;;;;;46.20;19.85;;;;;;;-13.20;67.76;101104.72;1754906;82;21323;-81
2021/12/23 17:54:41;;;;;;;40.88;18.82;;;;;;;-13.28;67.34;101109.62;1754981;82;21272;-81
2021/12/23 17:57:46;;;;;;;53.83;20.35;;;;;;;-13.37;67.00;101111.86;1754886;82;21874;-81
2021/12/23 18:00:53;;;;;;;44.13;20.37;;;;;;;-13.44;66.92;101112.34;1754932;82;21162;-80
2021/12/23 18:04:01;;;;;;;33.73;18.30;;;;;;;-13.50;66.99;101111.47;1739167;82;21277;-81
2021/12/23 18:07:09;;;;;;;53.58;19.65;;;;;;;-13.45;67.21;101111.04;1752473;81;21201;-79
2021/12/23 18:10:14;;;;;;;43.38;20.02;;;;;;;-13.37;67.67;101109.67;1754295;82;21853;-80
2021/12/23 18:13:20;;;;;;;37.95;18.07;;;;;;;-13.34;67.42;101115.80;1754222;82;21325;-80
2021/12/23 18:16:25;;;;;;;39.70;17.25;;;;;;;-13.38;67.15;101110.11;1754213;82;21693;-81
2021/12/23 18:19:31;;;;;;;36.23;17.52;;;;;;;-13.45;66.72;101111.04;1754495;82;21289;-81
2021/12/23 18:22:36;;;;;;;41.50;19.52;;;;;;;-13.48;66.62;101109.28;1754789;82;21279;-79
2021/12/23 18:25:42;;;;;;;30.48;14.13;;;;;;;-13.50;66.71;101104.89;1754986;82;21819;-79
2021/12/23 18:28:47;;;;;;;35.45;15.65;;;;;;;-13.48;66.98;101111.04;1754892;82;21297;-79
2021/12/23 18:31:53;;;;;;;35.45;16.42;;;;;;;-13.71;65.13;101105.86;1754835;82;21320;-80
2021/12/23 18:35:01;;;;;;;39.95;16.55;;;;;;;-13.95;64.67;101109.44;1754923;82;21197;-81
2021/12/23 18:38:08;;;;;;;44.48;19.55;;;;;;;-14.05;65.06;101109.02;1753949;82;21182;-81
2021/12/23 18:41:21;;;;;;;36.28;18.27;;;;;;;-14.12;65.41;101102.88;1754860;82;21159;-81
2021/12/23 18:44:23;;;;;;;47.27;20.65;;;;;;;-14.11;66.13;101104.66;1754343;82;21269;-80
2021/12/23 18:47:27;;;;;;;34.92;16.12;;;;;;;-14.06;66.62;101101.58;1754150;82;21356;-80
2021/12/23 18:50:32;;;;;;;39.92;18.17;;;;;;;-14.06;66.35;101104.65;1754981;82;21273;-80
2021/12/23 18:53:37;;;;;;;42.25;17.65;;;;;;;-14.08;65.98;101099.81;1754766;82;21182;-81
2021/12/23 18:56:42;;;;;;;46.80;18.17;;;;;;;-14.12;65.87;101104.64;1754875;82;21363;-81
2021/12/23 18:59:48;;;;;;;49.70;20.60;;;;;;;-14.15;65.84;101102.03;1754924;82;21807;-81
2021/12/23 19:06:11;;;;;;;45.05;21.73;;;;;;;-14.24;66.51;101091.96;1754896;82;21189;-79
2021/12/23 19:09:18;;;;;;;35.50;16.97;;;;;;;-14.27;66.55;101093.27;1754838;82;21293;-81
2021/12/23 19:12:24;;;;;;;30.52;13.20;;;;;;;-14.34;66.31;101098.55;1754885;82;21775;-80
2021/12/23 19:15:32;;;;;;;32.05;14.33;;;;;;;-14.39;65.82;101101.19;1754926;82;21772;-80
2021/12/23 19:18:38;;;;;;;27.27;12.03;;;;;;;-14.47;65.30;101103.80;1753567;82;21712;-81
2021/12/23 19:21:44;;;;;;;29.02;13.22;;;;;;;-14.51;65.18;101107.78;1754913;82;21352;-81
2021/12/23 19:24:49;;;;;;;32.50;13.65;;;;;;;-14.53;65.14;101105.60;1754844;82;21304;-80
2021/12/23 19:27:55;;;;;;;28.87;14.55;;;;;;;-14.59;65.22;101102.95;1754935;82;21364;-79
2021/12/23 19:31:00;;;;;;;29.92;15.00;;;;;;;-14.67;65.49;101104.72;1754974;82;21277;-80
2021/12/23 19:34:06;;;;;;;28.35;14.85;;;;;;;-14.68;65.91;101102.95;1754864;82;21273;-81
2021/12/23 19:37:12;;;;;;;32.93;15.28;;;;;;;-14.67;66.45;101107.35;1754716;82;21736;-81
2021/12/23 19:40:18;;;;;;;26.25;13.03;;;;;;;-14.67;66.68;101109.54;1754863;82;21305;-79
2021/12/23 19:43:22;;;;;;;26.35;12.33;;;;;;;-14.64;66.57;101115.21;1754836;82;21201;-81
2021/12/23 19:46:28;;;;;;;29.70;14.05;;;;;;;-14.53;66.33;101108.23;1754829;82;21276;-81
2021/12/23 19:49:34;;;;;;;38.63;16.65;;;;;;;-14.50;66.14;101107.77;1754717;82;21273;-80
2021/12/23 19:52:41;;;;;;;51.53;22.20;;;;;;;-14.52;66.19;101113.47;1754070;82;21308;-82
2021/12/23 19:55:45;;;;;;;65.67;29.57;;;;;;;-14.54;66.55;101106.45;1753561;82;21240;-81
2021/12/23 19:58:51;;;;;;;54.83;27.02;;;;;;;-14.52;67.24;101102.97;1753515;82;21905;-79
2021/12/23 20:01:58;;;;;;;39.92;21.00;;;;;;;-14.44;67.78;101099.00;1754570;82;21313;-79
2021/12/23 20:05:04;;;;;;;35.60;17.57;;;;;;;-14.38;67.90;101096.36;1754822;82;21170;-79
2021/12/23 20:08:12;;;;;;;34.40;17.25;;;;;;;-14.31;67.53;101091.52;1752670;81;21411;-79
2021/12/23 20:11:17;;;;;;;37.53;17.27;;;;;;;-14.28;66.94;101090.21;1754796;82;21292;-79
2021/12/23 20:14:23;;;;;;;36.70;18.00;;;;;;;-14.23;66.45;101093.70;1754861;82;21850;-78
2021/12/23 20:17:28;;;;;;;36.17;18.35;;;;;;;-14.23;66.13;101084.50;1754390;82;21715;-79
2021/12/23 20:20:34;;;;;;;42.40;18.25;;;;;;;-14.29;66.12;101082.34;1754910;82;22226;-81
2021/12/23 20:23:39;;;;;;;50.23;23.47;;;;;;;-14.35;66.42;101085.82;1753526;82;21340;-79
2021/12/23 20:26:46;;;;;;;98.75;39.70;;;;;;;-14.35;66.80;101087.14;1754827;82;21226;-79
2021/12/23 20:29:52;;;;;;;65.35;29.37;;;;;;;-14.35;67.29;101075.31;1753685;82;21269;-79
2021/12/23 20:32:58;;;;;;;49.65;25.30;;;;;;;-14.30;67.70;101073.98;1753460;82;21308;-79
2021/12/23 20:36:05;;;;;;;35.20;17.20;;;;;;;-14.26;67.72;101066.55;1753336;81;21760;-79
2021/12/23 20:39:15;;;;;;;50.15;22.48;;;;;;;-14.24;67.73;101063.48;1753896;82;21850;-79
2021/12/23 20:42:20;;;;;;;36.98;20.35;;;;;;;-14.22;67.47;101054.70;1754371;82;21304;-81
2021/12/23 20:45:26;;;;;;;42.83;21.50;;;;;;;-14.23;67.23;101055.59;1753439;82;21826;-80
2021/12/23 20:48:32;;;;;;;44.53;20.70;;;;;;;-14.21;66.94;101059.11;1754884;82;21312;-80
2021/12/23 20:51:38;;;;;;;48.70;23.50;;;;;;;-14.26;66.42;101059.53;1754955;82;21265;-81
2021/12/23 20:54:52;;;;;;;62.15;24.75;;;;;;;-14.26;66.44;101052.09;1754991;82;21313;-81
2021/12/23 20:57:58;;;;;;;53.45;26.02;;;;;;;-14.22;66.60;101053.39;1753495;81;21752;-81
2021/12/23 21:01:02;;;;;;;55.23;23.85;;;;;;;-14.10;66.91;101055.58;1754915;82;21310;-80
2021/12/23 21:04:08;;;;;;;48.48;22.10;;;;;;;-14.09;67.04;101037.60;1754940;82;21259;-79
2021/12/23 21:07:17;;;;;;;48.45;23.50;;;;;;;-14.06;67.41;101041.55;1754814;82;21304;-79
2021/12/23 21:10:20;;;;;;;45.70;22.73;;;;;;;-14.04;68.13;101038.02;1752455;81;21312;-80
2021/12/23 21:13:27;;;;;;;39.90;19.40;;;;;;;-14.00;68.77;101038.89;1754907;82;21313;-80
2021/12/23 21:16:34;;;;;;;42.33;18.62;;;;;;;-13.96;68.87;101034.93;1754932;82;21313;-79
2021/12/23 21:19:41;;;;;;;46.02;20.23;;;;;;;-14.01;67.53;101034.07;1754924;82;21308;-80
2021/12/23 21:22:49;;;;;;;49.08;21.90;;;;;;;-14.18;66.61;101032.80;1754114;82;21802;-81
2021/12/23 21:25:55;;;;;;;58.60;24.52;;;;;;;-14.30;66.42;101028.90;1754615;82;21320;-81
2021/12/23 21:29:01;;;;;;;50.98;22.87;;;;;;;-14.38;66.47;101027.16;1754370;82;21269;-79
2021/12/23 21:32:06;;;;;;;48.08;21.85;;;;;;;-14.35;66.48;101024.06;1753453;82;21841;-80
2021/12/23 21:35:11;;;;;;;51.33;22.85;;;;;;;-14.33;66.64;101024.95;1754756;82;21267;-81
2021/12/23 21:38:15;;;;;;;42.45;20.02;;;;;;;-14.39;66.39;101026.30;1754734;82;21237;-81
2021/12/23 21:41:20;;;;;;;44.55;21.12;;;;;;;-14.44;66.03;101021.05;1754674;82;21300;-79
2021/12/23 21:44:27;;;;;;;44.00;19.80;;;;;;;-14.49;65.89;101024.16;1755001;82;21162;-78
2021/12/23 21:47:32;;;;;;;37.23;20.40;;;;;;;-14.56;65.78;101025.02;1754326;82;21316;-80
2021/12/23 21:50:38;;;;;;;39.63;21.42;;;;;;;-14.64;65.63;101020.65;1753650;82;21162;-79
2021/12/23 21:53:45;;;;;;;46.23;21.68;;;;;;;-14.70;65.70;101018.47;1753451;82;21265;-81
2021/12/23 21:56:50;;;;;;;40.43;19.98;;;;;;;-14.71;65.94;101017.17;1754843;82;21284;-81
2021/12/23 21:59:56;;;;;;;49.67;21.75;;;;;;;-14.73;66.19;101012.34;1754704;82;21333;-79
2021/12/23 22:03:01;;;;;;;47.58;23.27;;;;;;;-14.70;66.26;101006.65;1755022;82;21708;-80
2021/12/23 22:06:06;;;;;;;57.15;24.67;;;;;;;-14.68;66.39;101007.95;1754940;82;21277;-80
2021/12/23 22:09:11;;;;;;;42.20;20.85;;;;;;;-14.65;66.78;101004.46;1754906;82;21265;-81
2021/12/23 22:12:16;;;;;;;44.85;21.35;;;;;;;-14.60;67.03;101000.07;1754083;80;21313;-80
2021/12/23 22:15:23;;;;;;;44.30;21.30;;;;;;;-14.54;66.91;101001.36;1754711;82;21288;-79
2021/12/23 22:18:29;;;;;;;53.35;22.75;;;;;;;-14.47;67.13;100996.52;1754910;82;21300;-79
2021/12/23 22:21:36;;;;;;;41.37;21.35;;;;;;;-14.46;67.37;100991.25;1754899;81;21877;-80
2021/12/23 22:24:43;;;;;;;53.45;24.05;;;;;;;-14.42;67.47;100984.69;1754474;82;21169;-80
2021/12/23 22:27:49;;;;;;;54.03;24.00;;;;;;;-14.38;67.51;100967.59;1754798;82;21209;-80
2021/12/23 22:30:54;;;;;;;51.00;23.18;;;;;;;-14.26;67.85;100972.79;1754846;82;21261;-80
2021/12/23 22:34:00;;;;;;;56.85;24.72;;;;;;;-14.14;68.01;100973.65;1754969;82;21308;-79
2021/12/23 22:37:05;;;;;;;62.27;27.10;;;;;;;-14.08;67.84;100956.08;1754685;82;21298;-81